Time;durP1;ratioP1;P1;durP2;ratioP2;P2;SDS_P1;SDS_P2;PMS_P1;PMS_P2;Temp;Humidity;BMP_temperature;BMP_pressure;BME280_temperature;BME280_humidity;BME280_pressure;Samples;Min_cycle;Max_cycle;Signal;HPM_P1;HPM_P2
2023/11/23 00:00:40;;;;;;;;;;;5.00;68.70;;;-0.06;100.00;96440.31;4990212;28;19909;-47
2023/11/23 00:03:06;;;;;;;;;;;4.90;68.70;;;-0.15;100.00;96435.31;5005990;28;19978;-48
2023/11/23 00:05:32;;;;;;;;;;;4.90;68.70;;;-0.22;100.00;96436.97;4994920;28;19919;-47
2023/11/23 00:07:59;;;;;;;;;;;4.80;68.70;;;-0.32;100.00;96434.59;5012617;28;20337;-49
2023/11/23 00:10:24;;;;;;;;;;;4.80;68.70;;;-0.43;100.00;96433.22;5008733;28;19948;-49
2023/11/23 00:12:50;;;;;;;;;;;4.70;68.70;;;-0.48;100.00;96438.97;5013384;28;20472;-47
2023/11/23 00:15:17;;;;;;;;;;;4.70;68.70;;;-0.54;100.00;96439.66;5005240;28;19919;-48
2023/11/23 00:17:43;;;;;;;;;;;4.60;68.80;;;-0.58;100.00;96434.97;5005132;28;19916;-48
2023/11/23 00:20:09;;;;;;;;;;;4.60;68.80;;;-0.57;100.00;96433.97;4993508;28;20004;-50
2023/11/23 00:22:35;;;;;;;;;;;4.50;68.90;;;-0.60;100.00;96434.31;4988027;28;19999;-48
2023/11/23 00:25:03;;;;;;;;;;;4.50;68.90;;;-0.65;100.00;96431.41;4999957;28;20422;-53
2023/11/23 00:27:28;;;;;;;;;;;4.40;68.90;;;-0.68;100.00;96437.00;5002585;28;19971;-48
2023/11/23 00:29:54;;;;;;;;;;;4.40;68.90;;;-0.73;100.00;96435.69;5008907;28;20368;-49
2023/11/23 00:32:20;;;;;;;;;;;4.40;69.00;;;-0.74;100.00;96433.25;5006219;28;20055;-47
2023/11/23 00:34:46;;;;;;;;;;;4.30;69.00;;;-0.77;100.00;96437.03;5014258;28;19916;-49
2023/11/23 00:37:12;;;;;;;;;;;4.30;69.00;;;-0.83;100.00;96432.50;5008596;28;19939;-48
2023/11/23 00:39:37;;;;;;;;;;;4.30;69.00;;;-0.90;100.00;96421.09;5017479;28;20356;-51
2023/11/23 00:42:03;;;;;;;;;;;4.20;69.00;;;-0.91;100.00;96423.88;5017502;28;19919;-55
2023/11/23 00:44:31;;;;;;;;;;;4.20;69.10;;;-0.95;100.00;96418.16;5014776;28;19909;-53
2023/11/23 00:46:57;;;;;;;;;;;4.20;69.10;;;-0.98;100.00;96427.16;5018148;28;20387;-47
2023/11/23 00:49:23;;;;;;;;;;;4.10;69.10;;;-0.96;100.00;96430.44;5015251;28;20000;-50
2023/11/23 00:51:49;;;;;;;;;;;4.10;69.20;;;-0.92;100.00;96430.91;5015225;28;20015;-51
2023/11/23 00:54:15;;;;;;;;;;;4.10;69.30;;;-0.93;100.00;96418.81;5014434;28;20015;-49
2023/11/23 00:56:41;;;;;;;;;;;4.10;69.30;;;-0.97;100.00;96420.16;5016509;28;20299;-54
2023/11/23 00:59:07;;;;;;;;;;;4.00;69.30;;;-0.97;100.00;96430.63;5015892;28;19925;-48
2023/11/23 01:01:33;;;;;;;;;;;4.10;69.30;;;-0.95;100.00;96429.44;5016341;28;19909;-53
2023/11/23 01:03:58;;;;;;;;;;;4.10;69.40;;;-0.96;100.00;96427.81;5015613;28;19909;-50
2023/11/23 01:06:24;;;;;;;;;;;4.00;69.40;;;-0.96;100.00;96427.81;5019955;28;19963;-47
2023/11/23 01:08:50;;;;;;;;;;;4.00;69.40;;;-0.94;100.00;96432.88;5017376;28;20362;-47
2023/11/23 01:11:16;;;;;;;;;;;4.00;69.50;;;-0.96;100.00;96440.09;5018185;28;19921;-52
2023/11/23 01:13:42;;;;;;;;;;;4.00;69.60;;;-0.96;100.00;96442.72;5019549;28;19988;-52
2023/11/23 01:16:09;;;;;;;;;;;4.00;69.60;;;-0.97;100.00;96441.91;5016880;28;19909;-49
2023/11/23 01:18:34;;;;;;;;;;;4.00;69.60;;;-0.92;100.00;96441.38;5008422;28;19931;-48
2023/11/23 01:21:00;;;;;;;;;;;4.00;69.70;;;-0.86;100.00;96453.75;5017779;28;20018;-50
2023/11/23 01:23:26;;;;;;;;;;;4.10;69.80;;;-0.80;100.00;96458.31;5017762;28;19912;-47
2023/11/23 01:25:52;;;;;;;;;;;4.10;69.90;;;-0.75;100.00;96458.63;5012029;28;19909;-47
2023/11/23 01:28:18;;;;;;;;;;;4.10;69.90;;;-0.70;100.00;96465.94;5020496;28;19913;-51
2023/11/23 01:30:44;;;;;;;;;;;4.10;70.00;;;-0.63;100.00;96466.06;4998091;28;20367;-49
2023/11/23 01:33:11;;;;;;;;;;;4.20;70.10;;;-0.64;100.00;96467.88;5013048;28;19936;-50
2023/11/23 01:35:37;;;;;;;;;;;4.20;70.10;;;-0.66;100.00;96476.88;5009047;28;19909;-46
2023/11/23 01:38:03;;;;;;;;;;;4.30;70.10;;;-0.65;100.00;96486.38;5000235;28;19947;-51
2023/11/23 01:40:30;;;;;;;;;;;4.30;70.10;;;-0.61;100.00;96483.22;5013223;28;19955;-46
2023/11/23 01:43:07;;;;;;;;;;;4.30;70.10;;;-0.59;100.00;96486.50;4982002;28;19919;-49
2023/11/23 01:45:33;;;;;;;;;;;4.30;70.10;;;-0.57;100.00;96484.50;4999745;28;19912;-45
2023/11/23 01:48:01;;;;;;;;;;;4.40;70.20;;;-0.52;100.00;96476.16;4997399;28;20272;-54
2023/11/23 01:50:31;;;;;;;;;;;4.40;70.20;;;-0.48;100.00;96483.47;5008829;28;19909;-46
2023/11/23 01:52:58;;;;;;;;;;;4.50;70.20;;;-0.44;100.00;96477.88;5006347;28;20418;-46
2023/11/23 01:55:24;;;;;;;;;;;4.50;70.20;;;-0.45;100.00;96490.16;5016930;28;20291;-49
2023/11/23 01:57:54;;;;;;;;;;;4.50;70.20;;;-0.43;100.00;96484.78;4996412;28;19939;-50
2023/11/23 02:00:24;;;;;;;;;;;4.50;70.20;;;-0.37;100.00;96491.94;5008831;28;19909;-46
2023/11/23 02:02:51;;;;;;;;;;;4.60;70.20;;;-0.35;100.00;96489.94;4996385;28;19915;-47
2023/11/23 02:05:16;;;;;;;;;;;4.60;70.10;;;-0.33;100.00;96469.66;4988655;28;19987;-48
2023/11/23 02:07:42;;;;;;;;;;;4.60;70.10;;;-0.35;100.00;96475.03;5008064;28;19946;-46
2023/11/23 02:10:08;;;;;;;;;;;4.70;70.10;;;-0.34;100.00;96474.06;5007776;28;19909;-49
2023/11/23 02:12:35;;;;;;;;;;;4.70;70.00;;;-0.33;100.00;96478.31;5009365;28;19917;-46
2023/11/23 02:15:02;;;;;;;;;;;4.70;70.00;;;-0.30;100.00;96471.91;5007793;28;19955;-47
2023/11/23 02:17:30;;;;;;;;;;;4.70;70.00;;;-0.29;100.00;96466.50;4993057;28;19909;-46
2023/11/23 02:19:58;;;;;;;;;;;4.70;70.00;;;-0.29;100.00;96460.44;5007821;28;19928;-48
2023/11/23 02:22:24;;;;;;;;;;;4.70;69.90;;;-0.32;100.00;96456.34;4992276;28;19916;-47
2023/11/23 02:24:50;;;;;;;;;;;4.70;69.80;;;-0.34;100.00;96465.41;5009420;28;19909;-46
2023/11/23 02:27:16;;;;;;;;;;;4.70;69.80;;;-0.35;100.00;96469.00;4988929;28;19928;-46
2023/11/23 02:29:42;;;;;;;;;;;4.70;69.80;;;-0.36;100.00;96470.00;5008728;28;19909;-46
2023/11/23 02:32:09;;;;;;;;;;;4.70;69.80;;;-0.35;100.00;96471.59;5014844;28;19913;-46
2023/11/23 02:34:37;;;;;;;;;;;4.70;69.80;;;-0.33;100.00;96474.88;5007920;28;19917;-50
2023/11/23 02:37:04;;;;;;;;;;;4.70;69.90;;;-0.33;100.00;96477.50;4987241;28;20253;-48
2023/11/23 02:39:31;;;;;;;;;;;4.70;69.90;;;-0.34;100.00;96474.06;5001001;28;19920;-52
2023/11/23 02:41:59;;;;;;;;;;;4.70;69.90;;;-0.36;100.00;96470.00;5013151;28;19909;-51
2023/11/23 02:44:25;;;;;;;;;;;4.70;69.90;;;-0.39;100.00;96465.91;5014291;28;19909;-52
2023/11/23 02:46:52;;;;;;;;;;;4.70;69.90;;;-0.38;100.00;96462.28;4996294;28;19918;-48
2023/11/23 02:49:21;;;;;;;;;;;4.70;69.90;;;-0.41;100.00;96454.78;5012228;28;19916;-49
2023/11/23 02:51:46;;;;;;;;;;;4.70;69.80;;;-0.42;100.00;96449.75;5010597;28;19924;-49
2023/11/23 02:54:13;;;;;;;;;;;4.70;69.80;;;-0.45;100.00;96450.91;5008852;28;19913;-48
2023/11/23 02:56:39;;;;;;;;;;;4.70;69.90;;;-0.42;100.00;96460.22;5011006;28;19909;-50
2023/11/23 02:59:05;;;;;;;;;;;4.70;69.90;;;-0.39;100.00;96455.44;5007347;28;19913;-47
2023/11/23 03:01:34;;;;;;;;;;;4.80;69.90;;;-0.38;100.00;96454.44;5013468;28;20020;-49
2023/11/23 03:04:00;;;;;;;;;;;4.80;69.90;;;-0.39;100.00;96452.81;4990194;28;19910;-47
2023/11/23 03:06:26;;;;;;;;;;;4.80;69.90;;;-0.37;100.00;96460.50;4989795;28;20007;-50
2023/11/23 03:08:53;;;;;;;;;;;4.80;69.90;;;-0.37;100.00;96478.84;5009044;28;20016;-49
2023/11/23 03:11:27;;;;;;;;;;;4.80;70.00;;;-0.33;100.00;96474.88;4990727;28;19909;-45
2023/11/23 03:13:54;;;;;;;;;;;4.80;70.00;;;-0.32;100.00;96469.44;5013170;28;19979;-49
2023/11/23 03:16:21;;;;;;;;;;;4.80;70.00;;;-0.31;100.00;96476.34;4988291;28;20441;-50
2023/11/23 03:18:47;;;;;;;;;;;4.80;70.00;;;-0.29;100.00;96476.97;5003293;28;19952;-46
2023/11/23 03:21:13;;;;;;;;;;;4.80;70.00;;;-0.29;100.00;96474.34;5004848;28;19920;-46
2023/11/23 03:23:42;;;;;;;;;;;4.90;70.10;;;-0.30;100.00;96491.06;5008237;28;19909;-51
2023/11/23 03:26:09;;;;;;;;;;;4.90;70.10;;;-0.29;100.00;96494.47;5008068;28;19948;-45
2023/11/23 03:28:35;;;;;;;;;;;4.90;70.00;;;-0.21;100.00;96493.63;5005861;28;19920;-46
2023/11/23 03:31:01;;;;;;;;;;;4.90;70.10;;;-0.20;100.00;96492.63;5011048;28;19919;-45
2023/11/23 03:33:27;;;;;;;;;;;5.00;70.10;;;-0.14;100.00;96486.69;5011536;28;19913;-51
2023/11/23 03:35:53;;;;;;;;;;;5.00;70.10;;;-0.14;100.00;96487.50;5010557;28;20031;-46
2023/11/23 03:38:19;;;;;;;;;;;5.00;70.10;;;-0.16;100.00;96478.19;4991745;28;20082;-47
2023/11/23 03:40:45;;;;;;;;;;;5.00;70.10;;;-0.15;100.00;96475.41;4992964;28;20287;-46
2023/11/23 03:43:11;;;;;;;;;;;5.10;70.00;;;-0.17;100.00;96471.31;5000734;28;19909;-53
2023/11/23 03:45:37;;;;;;;;;;;5.00;70.00;;;-0.16;100.00;96473.75;5009196;28;19909;-47
2023/11/23 03:48:05;;;;;;;;;;;5.10;69.90;;;-0.16;100.00;96458.03;5008545;28;19982;-52
2023/11/23 03:50:33;;;;;;;;;;;5.10;69.90;;;-0.16;100.00;96455.41;5011417;28;19996;-46
2023/11/23 03:52:59;;;;;;;;;;;5.00;69.80;;;-0.14;100.00;96450.84;5009513;28;19940;-50
2023/11/23 03:55:25;;;;;;;;;;;5.00;69.80;;;-0.15;100.00;96458.88;4987752;28;19916;-47
2023/11/23 03:57:51;;;;;;;;;;;5.00;69.80;;;-0.18;100.00;96460.03;5011275;28;19908;-47
2023/11/23 04:00:17;;;;;;;;;;;5.00;69.80;;;-0.26;100.00;96455.66;5002152;28;20402;-45
2023/11/23 04:02:43;;;;;;;;;;;5.00;69.80;;;-0.28;100.00;96459.47;5007391;28;19912;-46
2023/11/23 04:05:10;;;;;;;;;;;5.00;69.80;;;-0.22;100.00;96450.88;5011650;28;19917;-48
2023/11/23 04:07:35;;;;;;;;;;;4.90;69.80;;;-0.21;100.00;96459.59;5017463;28;19921;-46
2023/11/23 04:10:03;;;;;;;;;;;4.90;69.70;;;-0.31;100.00;96458.00;5008505;28;20261;-51
2023/11/23 04:12:29;;;;;;;;;;;4.90;69.80;;;-0.33;100.00;96464.41;5001334;28;20351;-51
2023/11/23 04:14:56;;;;;;;;;;;4.80;69.70;;;-0.34;100.00;96457.56;5005818;28;19991;-49
2023/11/23 04:17:22;;;;;;;;;;;4.80;69.60;;;-0.40;100.00;96468.72;5012221;28;19916;-48
2023/11/23 04:19:48;;;;;;;;;;;4.70;69.60;;;-0.44;100.00;96460.38;5007346;28;19909;-49
2023/11/23 04:22:14;;;;;;;;;;;4.70;69.60;;;-0.51;100.00;96465.50;5007920;28;19916;-51
2023/11/23 04:24:41;;;;;;;;;;;4.60;69.60;;;-0.53;100.00;96469.28;5007257;28;20260;-47
2023/11/23 04:27:12;;;;;;;;;;;4.60;69.60;;;-0.57;100.00;96481.06;5006480;28;19917;-50
2023/11/23 04:29:38;;;;;;;;;;;4.60;69.60;;;-0.63;100.00;96489.63;5008354;28;20071;-48
2023/11/23 04:32:06;;;;;;;;;;;4.50;69.60;;;-0.69;100.00;96485.88;5010212;28;20008;-47
2023/11/23 04:34:32;;;;;;;;;;;4.50;69.70;;;-0.73;100.00;96480.19;5004927;28;19913;-45
2023/11/23 04:36:59;;;;;;;;;;;4.40;69.60;;;-0.74;100.00;96486.41;5005383;28;19909;-47
2023/11/23 04:39:25;;;;;;;;;;;4.40;69.70;;;-0.78;100.00;96481.69;5004105;28;20036;-45
2023/11/23 04:41:51;;;;;;;;;;;4.40;69.80;;;-0.82;100.00;96469.94;5005500;28;19909;-48
2023/11/23 04:44:17;;;;;;;;;;;4.30;69.80;;;-0.83;100.00;96478.78;5009467;28;20248;-48
2023/11/23 04:46:43;;;;;;;;;;;4.30;69.80;;;-0.89;100.00;96484.69;5003033;28;20498;-47
2023/11/23 04:49:08;;;;;;;;;;;4.30;69.90;;;-0.96;100.00;96480.13;4995636;28;20646;-46
2023/11/23 04:51:34;;;;;;;;;;;4.20;69.80;;;-0.97;100.00;96478.50;5007678;28;19913;-46
2023/11/23 04:54:00;;;;;;;;;;;4.30;70.00;;;-0.93;100.00;96469.34;5003699;28;19917;-46
2023/11/23 04:56:26;;;;;;;;;;;4.20;69.90;;;-0.92;100.00;96472.75;5007197;28;19932;-45
2023/11/23 04:58:51;;;;;;;;;;;4.20;70.00;;;-0.97;100.00;96477.69;5002010;28;20229;-46
2023/11/23 05:01:17;;;;;;;;;;;4.20;70.00;;;-0.93;100.00;96474.56;5013611;28;20004;-46
2023/11/23 05:03:43;;;;;;;;;;;4.20;70.10;;;-0.89;100.00;96482.88;4991970;28;19909;-45
2023/11/23 05:06:09;;;;;;;;;;;4.20;70.20;;;-0.86;100.00;96482.53;5004850;28;19909;-46
2023/11/23 05:08:36;;;;;;;;;;;4.20;70.30;;;-0.81;100.00;96485.47;5005013;28;19912;-49
2023/11/23 05:11:03;;;;;;;;;;;4.20;70.40;;;-0.79;100.00;96486.09;5004382;28;19909;-46
2023/11/23 05:13:29;;;;;;;;;;;4.20;70.40;;;-0.80;100.00;96488.91;5004325;28;20011;-48
2023/11/23 05:15:55;;;;;;;;;;;4.30;70.40;;;-0.77;100.00;96491.97;5005152;28;19934;-51
2023/11/23 05:18:20;;;;;;;;;;;4.30;70.40;;;-0.78;100.00;96489.56;5015835;28;20275;-47
2023/11/23 05:20:46;;;;;;;;;;;4.30;70.40;;;-0.79;100.00;96487.91;5006385;28;20044;-46
2023/11/23 05:23:12;;;;;;;;;;;4.30;70.30;;;-0.78;100.00;96497.41;4994524;28;19909;-49
2023/11/23 05:25:38;;;;;;;;;;;4.30;70.40;;;-0.75;100.00;96502.28;4996954;28;19908;-48
2023/11/23 05:28:03;;;;;;;;;;;4.30;70.40;;;-0.68;100.00;96505.84;5008691;28;19928;-47
2023/11/23 05:30:29;;;;;;;;;;;4.30;70.40;;;-0.63;100.00;96502.69;5009547;28;19918;-46
2023/11/23 05:32:55;;;;;;;;;;;4.40;70.60;;;-0.60;100.00;96502.34;5005692;28;20391;-47
2023/11/23 05:35:21;;;;;;;;;;;4.40;70.60;;;-0.56;100.00;96503.66;5008484;28;19910;-47
2023/11/23 05:37:47;;;;;;;;;;;4.50;70.70;;;-0.52;100.00;96491.84;5009396;28;19916;-48
2023/11/23 05:40:14;;;;;;;;;;;4.50;70.70;;;-0.46;100.00;96491.16;5007270;28;19909;-47
2023/11/23 05:42:40;;;;;;;;;;;4.60;70.80;;;-0.41;100.00;96495.88;5010093;28;19926;-48
2023/11/23 05:45:08;;;;;;;;;;;4.60;70.70;;;-0.38;100.00;96487.66;5009975;28;19917;-47
2023/11/23 05:47:34;;;;;;;;;;;4.70;70.70;;;-0.34;100.00;96487.16;5007318;28;19928;-49
2023/11/23 05:50:02;;;;;;;;;;;4.80;70.70;;;-0.30;100.00;96492.84;5010740;28;20035;-46
2023/11/23 05:52:31;;;;;;;;;;;4.80;70.70;;;-0.24;100.00;96492.97;5006166;28;19913;-50
2023/11/23 05:54:57;;;;;;;;;;;4.80;70.70;;;-0.24;100.00;96487.75;5008140;28;19952;-47
2023/11/23 05:57:24;;;;;;;;;;;4.90;71.40;;;-0.18;100.00;96482.81;5008694;28;19909;-50
2023/11/23 05:59:52;;;;;;;;;;;4.90;70.60;;;-0.15;100.00;96482.44;5010206;28;19932;-48
2023/11/23 06:02:19;;;;;;;;;;;4.90;70.60;;;-0.13;100.00;96483.88;5008605;28;20376;-46
2023/11/23 06:04:45;;;;;;;;;;;5.00;70.60;;;-0.11;100.00;96483.72;5007426;28;19909;-49
2023/11/23 06:07:11;;;;;;;;;;;5.00;70.60;;;-0.11;100.00;96479.28;4992024;28;20360;-50
2023/11/23 06:09:38;;;;;;;;;;;5.00;70.50;;;-0.06;100.00;96486.63;5008797;28;19916;-47
2023/11/23 06:12:04;;;;;;;;;;;5.10;70.50;;;-0.05;100.00;96493.50;5003978;28;19924;-48
2023/11/23 06:14:32;;;;;;;;;;;5.10;70.50;;;-0.05;100.00;96506.59;5008221;28;20291;-46
2023/11/23 06:16:58;;;;;;;;;;;5.10;70.40;;;-0.02;100.00;96514.09;5007001;28;19909;-47
2023/11/23 06:19:24;;;;;;;;;;;5.20;70.40;;;0.02;100.00;96511.94;5011162;28;19913;-48
2023/11/23 06:21:50;;;;;;;;;;;5.20;70.40;;;0.03;100.00;96506.50;5008611;28;19919;-47
2023/11/23 06:24:19;;;;;;;;;;;5.20;70.40;;;0.07;100.00;96507.00;5009191;28;19913;-48
2023/11/23 06:26:44;;;;;;;;;;;5.30;70.40;;;0.07;100.00;96507.00;5007061;28;20334;-50
2023/11/23 06:29:10;;;;;;;;;;;5.30;70.40;;;0.06;100.00;96510.59;5012281;28;19935;-47
2023/11/23 06:31:36;;;;;;;;;;;5.30;70.40;;;0.11;100.00;96516.13;5001933;28;19925;-50
2023/11/23 06:34:02;;;;;;;;;;;5.30;70.30;;;0.14;100.00;96516.59;5005296;28;19966;-50
2023/11/23 06:36:28;;;;;;;;;;;5.40;70.40;;;0.19;100.00;96521.31;5005193;28;20363;-49
2023/11/23 06:38:53;;;;;;;;;;;5.40;70.30;;;0.20;100.00;96518.50;4990815;28;19952;-48
2023/11/23 06:41:21;;;;;;;;;;;5.40;70.30;;;0.22;100.00;96510.47;5002214;28;19910;-46
2023/11/23 06:43:52;;;;;;;;;;;5.50;70.40;;;0.22;100.00;96513.91;5009356;28;19917;-48
2023/11/23 06:46:19;;;;;;;;;;;5.50;70.30;;;0.25;100.00;96502.25;5000900;28;20136;-46
2023/11/23 06:48:46;;;;;;;;;;;5.50;70.30;;;0.23;100.00;96499.81;5003453;28;19941;-50
2023/11/23 06:51:13;;;;;;;;;;;5.50;70.20;;;0.24;100.00;96498.00;5005085;28;19909;-47
2023/11/23 06:53:57;;;;;;;;;;;5.50;70.20;;;0.29;100.00;96498.28;5018586;28;20256;-52
2023/11/23 06:56:23;;;;;;;;;;;5.50;70.20;;;0.30;100.00;96505.16;5012699;28;19955;-48
2023/11/23 06:58:49;;;;;;;;;;;5.60;70.20;;;0.27;100.00;96504.69;5000943;28;19909;-50
2023/11/23 07:01:15;;;;;;;;;;;5.60;71.00;;;0.28;100.00;96508.94;5005794;28;19916;-51
2023/11/23 07:03:44;;;;;;;;;;;5.60;70.20;;;0.29;100.00;96510.59;5004774;28;19963;-52
2023/11/23 07:06:10;;;;;;;;;;;5.50;70.10;;;0.31;100.00;96506.78;5009699;28;19966;-49
2023/11/23 07:08:39;;;;;;;;;;;5.60;70.20;;;0.32;100.00;96508.41;5006317;28;20295;-47
2023/11/23 07:11:05;;;;;;;;;;;5.60;70.20;;;0.35;100.00;96508.06;5008983;28;19931;-48
2023/11/23 07:13:35;;;;;;;;;;;5.60;70.20;;;0.37;100.00;96516.53;5007608;28;20597;-51
2023/11/23 07:16:02;;;;;;;;;;;5.70;70.30;;;0.35;100.00;96515.94;4992605;28;20675;-52
2023/11/23 07:18:29;;;;;;;;;;;5.70;70.20;;;0.37;100.00;96513.94;5009165;28;19913;-49
2023/11/23 07:20:55;;;;;;;;;;;5.70;70.10;;;0.42;100.00;96508.97;5008947;28;19909;-48
2023/11/23 07:23:25;;;;;;;;;;;5.70;70.10;;;0.43;100.00;96504.53;5004377;28;20007;-46
2023/11/23 07:25:52;;;;;;;;;;;5.80;70.10;;;0.45;100.00;96520.91;5010784;28;19954;-49
2023/11/23 07:28:21;;;;;;;;;;;5.80;70.00;;;0.48;100.00;96519.75;5010420;28;20051;-48
2023/11/23 07:30:48;;;;;;;;;;;5.80;70.00;;;0.43;100.00;96533.38;5009623;28;19909;-49
2023/11/23 07:33:17;;;;;;;;;;;5.90;70.00;;;0.50;100.00;96534.28;5007012;28;20431;-49
2023/11/23 07:35:48;;;;;;;;;;;5.90;70.00;;;0.56;100.00;96530.97;5008316;28;19909;-50
2023/11/23 07:38:14;;;;;;;;;;;6.00;70.00;;;0.61;100.00;96533.06;5006978;28;19909;-50
2023/11/23 07:40:41;;;;;;;;;;;6.00;70.00;;;0.65;100.00;96532.50;5006675;28;20012;-50
2023/11/23 07:43:08;;;;;;;;;;;6.10;70.00;;;0.69;100.00;96535.63;5008828;28;19920;-49
2023/11/23 07:45:34;;;;;;;;;;;6.20;70.00;;;0.76;100.00;96546.19;4992768;28;19916;-50
2023/11/23 07:48:08;;;;;;;;;;;6.20;70.00;;;0.84;100.00;96546.09;5010113;28;19924;-52
2023/11/23 07:50:37;;;;;;;;;;;6.30;70.00;;;0.87;100.00;96541.31;5008319;28;19909;-49
2023/11/23 07:53:03;;;;;;;;;;;6.30;69.90;;;0.90;100.00;96534.88;5010256;28;20015;-48
2023/11/23 07:55:29;;;;;;;;;;;6.40;69.90;;;0.95;100.00;96529.94;5009164;28;20704;-51
2023/11/23 07:57:54;;;;;;;;;;;6.50;69.80;;;1.02;100.00;96527.38;5003041;28;19995;-51
2023/11/23 08:00:21;;;;;;;;;;;6.60;69.80;;;1.08;100.00;96526.66;5010796;28;20279;-51
2023/11/23 08:02:47;;;;;;;;;;;6.70;69.80;;;1.01;100.00;96536.25;4999581;28;19998;-52
2023/11/23 08:05:13;;;;;;;;;;;6.70;69.70;;;1.10;100.00;96535.19;5010339;28;19931;-53
2023/11/23 08:07:39;;;;;;;;;;;6.80;69.60;;;1.15;100.00;96531.00;5006733;28;20368;-48
2023/11/23 08:10:06;;;;;;;;;;;6.90;69.60;;;1.24;100.00;96541.41;5000490;28;20004;-51
2023/11/23 08:12:33;;;;;;;;;;;6.90;69.60;;;1.28;100.00;96538.22;5008906;28;19912;-55
2023/11/23 08:14:59;;;;;;;;;;;7.00;69.50;;;1.30;100.00;96533.59;5006484;28;19916;-52
2023/11/23 08:17:26;;;;;;;;;;;7.10;69.50;;;1.37;100.00;96529.25;5010681;28;19909;-54
2023/11/23 08:19:52;;;;;;;;;;;7.20;69.50;;;1.38;100.00;96528.28;5002656;28;19918;-53
2023/11/23 08:22:21;;;;;;;;;;;7.30;69.40;;;1.46;100.00;96524.72;5000326;28;20008;-53
2023/11/23 08:24:47;;;;;;;;;;;7.30;69.30;;;1.55;100.00;96526.22;5000214;28;19921;-55
2023/11/23 08:27:13;;;;;;;;;;;7.40;69.20;;;1.58;100.00;96525.88;5003795;28;19925;-57
2023/11/23 08:29:39;;;;;;;;;;;7.50;69.10;;;1.68;100.00;96527.38;5006169;28;19917;-54
2023/11/23 08:32:08;;;;;;;;;;;7.60;69.10;;;1.77;100.00;96518.38;5002913;28;19909;-55
2023/11/23 08:34:35;;;;;;;;;;;7.70;69.10;;;1.78;100.00;96510.31;5001989;28;19916;-52
2023/11/23 08:37:02;;;;;;;;;;;7.80;69.00;;;1.89;100.00;96518.72;5007774;28;19999;-54
2023/11/23 08:39:28;;;;;;;;;;;7.90;69.00;;;1.95;100.00;96517.97;4998364;28;19917;-52
2023/11/23 08:41:53;;;;;;;;;;;8.00;68.90;;;2.03;100.00;96516.00;5002233;28;20397;-55
2023/11/23 08:44:20;;;;;;;;;;;8.00;68.80;;;2.04;100.00;96512.41;4999651;28;20387;-51
2023/11/23 08:46:46;;;;;;;;;;;8.10;68.80;;;2.10;100.00;96516.09;4999065;28;20011;-54
2023/11/23 08:49:12;;;;;;;;;;;8.20;68.60;;;2.07;100.00;96522.53;5005062;28;20055;-52
2023/11/23 08:51:39;;;;;;;;;;;8.20;68.50;;;2.12;100.00;96526.41;5005683;28;19916;-53
2023/11/23 08:54:05;;;;;;;;;;;8.20;68.40;;;2.18;100.00;96526.47;5008095;28;19962;-55
2023/11/23 08:56:33;;;;;;;;;;;8.30;68.40;;;2.26;100.00;96533.44;5002442;28;20370;-53
2023/11/23 08:58:59;;;;;;;;;;;8.30;68.40;;;2.29;100.00;96523.34;5005216;28;19909;-55
2023/11/23 09:01:28;;;;;;;;;;;8.40;68.40;;;2.33;100.00;96525.59;4997963;28;20023;-54
2023/11/23 09:03:55;;;;;;;;;;;8.40;68.30;;;2.29;100.00;96522.53;5004038;28;20015;-51
2023/11/23 09:06:24;;;;;;;;;;;8.50;68.20;;;2.33;100.00;96521.13;4999795;28;20008;-50
2023/11/23 09:08:49;;;;;;;;;;;8.50;68.10;;;2.35;100.00;96526.19;5005049;28;19974;-52
2023/11/23 09:11:16;;;;;;;;;;;8.50;68.00;;;2.45;100.00;96532.78;4992835;28;19913;-52
2023/11/23 09:13:43;;;;;;;;;;;8.60;68.00;;;2.55;100.00;96535.06;5003405;28;19913;-52
2023/11/23 09:16:11;;;;;;;;;;;8.60;68.10;;;2.61;100.00;96536.13;5009354;28;20011;-52
2023/11/23 09:18:37;;;;;;;;;;;8.70;68.10;;;2.63;100.00;96542.81;4999688;28;19944;-54
2023/11/23 09:21:03;;;;;;;;;;;8.80;68.20;;;2.56;100.00;96544.59;5004346;28;20354;-56
2023/11/23 09:23:29;;;;;;;;;;;8.80;67.90;;;2.67;100.00;96549.34;4979369;28;19909;-54
2023/11/23 09:25:55;;;;;;;;;;;8.90;67.90;;;2.75;100.00;96556.25;5007059;28;20292;-55
2023/11/23 09:28:23;;;;;;;;;;;8.90;67.90;;;2.77;100.00;96546.38;4984035;28;19915;-51
2023/11/23 09:30:49;;;;;;;;;;;9.00;68.00;;;2.80;100.00;96540.72;5011437;28;19919;-51
2023/11/23 09:33:15;;;;;;;;;;;9.10;67.90;;;2.91;100.00;96540.16;4986989;28;19917;-53
2023/11/23 09:35:42;;;;;;;;;;;9.10;67.80;;;3.01;100.00;96539.84;5000972;28;19909;-51
2023/11/23 09:38:08;;;;;;;;;;;9.20;67.80;;;3.07;100.00;96543.50;4998478;28;19909;-52
2023/11/23 09:40:35;;;;;;;;;;;9.30;67.70;;;3.18;100.00;96548.25;5004857;28;20023;-53
2023/11/23 09:43:01;;;;;;;;;;;9.30;67.60;;;3.21;100.00;96553.94;4988031;28;20431;-50
2023/11/23 09:45:29;;;;;;;;;;;9.30;67.60;;;3.15;100.00;96546.00;5001831;28;19913;-53
2023/11/23 09:47:57;;;;;;;;;;;9.40;67.40;;;3.22;100.00;96545.00;4986883;28;20347;-52
2023/11/23 09:50:31;;;;;;;;;;;9.40;67.40;;;3.25;100.00;96541.19;4998540;28;19910;-51
2023/11/23 09:52:59;;;;;;;;;;;9.40;67.20;;;3.29;100.00;96534.53;4995888;28;19953;-54
2023/11/23 09:55:25;;;;;;;;;;;9.40;67.20;;;3.22;98.25;96538.94;4987800;28;19909;-52
2023/11/23 09:57:52;;;;;;;;;;;9.50;67.10;;;3.30;98.31;96540.63;5005446;28;20272;-50
2023/11/23 10:00:19;;;;;;;;;;;9.50;67.00;;;3.34;99.54;96544.47;4994959;28;19910;-51
2023/11/23 10:02:49;;;;;;;;;;;9.50;67.00;;;3.40;98.02;96543.69;5011044;28;19909;-53
2023/11/23 10:05:17;;;;;;;;;;;9.50;66.80;;;3.45;97.93;96547.38;4996912;28;19982;-52
2023/11/23 10:07:45;;;;;;;;;;;9.50;66.90;;;3.47;95.85;96539.25;5005719;28;19909;-55
2023/11/23 10:10:13;;;;;;;;;;;9.50;66.70;;;3.50;96.75;96535.44;4995650;28;19909;-51
2023/11/23 10:12:40;;;;;;;;;;;9.50;66.60;;;3.56;96.03;96530.19;5001441;28;19920;-53
2023/11/23 10:15:10;;;;;;;;;;;9.60;66.70;;;3.58;95.30;96530.81;4998964;28;20352;-52
2023/11/23 10:17:37;;;;;;;;;;;9.60;66.60;;;3.65;96.63;96523.72;4997778;28;19935;-56
2023/11/23 10:20:15;;;;;;;;;;;9.60;66.60;;;3.67;96.92;96521.72;5014216;28;19909;-53
2023/11/23 10:22:47;;;;;;;;;;;9.70;66.70;;;3.62;95.95;96508.31;4998852;28;19909;-50
2023/11/23 10:25:34;;;;;;;;;;;9.70;66.40;;;3.64;96.27;96500.22;5003422;28;19909;-56
2023/11/23 10:28:01;;;;;;;;;;;9.70;66.20;;;3.76;95.18;96482.81;5011135;28;19917;-53
2023/11/23 10:30:28;;;;;;;;;;;9.80;66.30;;;3.86;94.50;96480.59;5011504;28;19909;-52
2023/11/23 10:32:56;;;;;;;;;;;9.90;66.30;;;3.95;94.40;96478.59;4991169;28;19920;-53
2023/11/23 10:35:40;;;;;;;;;;;10.00;66.10;;;3.88;92.81;96478.56;5011745;28;20499;-55
2023/11/23 10:38:08;;;;;;;;;;;10.10;65.80;;;3.87;91.69;96476.16;4991026;28;19909;-51
2023/11/23 10:40:34;;;;;;;;;;;10.20;65.60;;;3.88;90.81;96470.66;5004022;28;19918;-52
2023/11/23 10:43:02;;;;;;;;;;;10.20;65.50;;;3.94;91.56;96471.69;5012515;28;20000;-54
2023/11/23 10:45:30;;;;;;;;;;;10.20;65.30;;;4.01;91.59;96461.16;5011522;28;19909;-54
2023/11/23 10:48:01;;;;;;;;;;;10.30;65.40;;;4.09;93.46;96455.69;5011610;28;19909;-53
2023/11/23 10:50:28;;;;;;;;;;;10.30;65.20;;;4.15;93.18;96441.69;5009579;28;20008;-50
2023/11/23 10:52:58;;;;;;;;;;;10.40;65.20;;;4.26;92.84;96449.00;4988622;28;19923;-51
2023/11/23 10:55:24;;;;;;;;;;;10.50;65.30;;;4.43;93.03;96453.88;5008165;28;19945;-54
2023/11/23 10:58:05;;;;;;;;;;;10.50;65.30;;;4.35;90.15;96457.50;5006597;28;19913;-54
2023/11/23 11:00:31;;;;;;;;;;;10.60;65.20;;;4.20;90.40;96447.19;5007256;28;19913;-53
2023/11/23 11:03:04;;;;;;;;;;;10.70;64.70;;;4.32;91.00;96442.88;5011599;28;19917;-56
2023/11/23 11:05:35;;;;;;;;;;;10.70;64.50;;;4.50;90.44;96433.56;5011172;28;19967;-54
2023/11/23 11:08:07;;;;;;;;;;;10.70;64.50;;;4.50;91.11;96430.91;4985193;28;19921;-53
2023/11/23 11:10:44;;;;;;;;;;;10.80;64.60;;;4.58;90.48;96428.06;5010086;28;19909;-56
2023/11/23 11:13:20;;;;;;;;;;;10.90;64.40;;;4.66;88.10;96417.28;5003705;28;20326;-53
2023/11/23 11:16:06;;;;;;;;;;;11.00;64.30;;;4.68;87.25;96409.97;5008079;28;20062;-55
2023/11/23 11:18:38;;;;;;;;;;;11.10;64.10;;;4.70;89.17;96410.59;5010266;28;19913;-55
2023/11/23 11:21:24;;;;;;;;;;;11.20;64.60;;;4.67;89.85;96403.09;5010444;28;20020;-52